sensor_id;sensor_type;location;lat;lon;timestamp;P1;durP1;ratioP1;P2;durP2;ratioP2
17449;SDS011;8842;51.244;7.102;2023-04-25T00:00:49;9.33;;;8.83;;
17449;SDS011;8842;51.244;7.102;2023-04-25T00:05:55;9.50;;;9.00;;
17449;SDS011;8842;51.244;7.102;2023-04-25T00:11:07;9.53;;;9.03;;
17449;SDS011;8842;51.244;7.102;2023-04-25T00:16:12;9.53;;;9.03;;
17449;SDS011;8842;51.244;7.102;2023-04-25T00:21:18;9.70;;;9.20;;
17449;SDS011;8842;51.244;7.102;2023-04-25T00:26:29;10.60;;;10.03;;
17449;SDS011;8842;51.244;7.102;2023-04-25T00:31:33;9.77;;;9.27;;
17449;SDS011;8842;51.244;7.102;2023-04-25T00:36:45;10.10;;;9.60;;
17449;SDS011;8842;51.244;7.102;2023-04-25T00:41:49;9.70;;;9.20;;
17449;SDS011;8842;51.244;7.102;2023-04-25T00:47:04;9.50;;;9.00;;
17449;SDS011;8842;51.244;7.102;2023-04-25T00:52:09;10.10;;;9.60;;
17449;SDS011;8842;51.244;7.102;2023-04-25T00:57:21;9.60;;;9.10;;
17449;SDS011;8842;51.244;7.102;2023-04-25T01:02:25;9.60;;;9.10;;
17449;SDS011;8842;51.244;7.102;2023-04-25T01:07:37;10.23;;;9.63;;
17449;SDS011;8842;51.244;7.102;2023-04-25T01:12:42;9.80;;;9.30;;
17449;SDS011;8842;51.244;7.102;2023-04-25T01:17:54;10.67;;;9.97;;
17449;SDS011;8842;51.244;7.102;2023-04-25T01:22:58;10.70;;;10.10;;
17449;SDS011;8842;51.244;7.102;2023-04-25T01:28:10;9.93;;;9.43;;
17449;SDS011;8842;51.244;7.102;2023-04-25T01:33:14;9.80;;;9.30;;
17449;SDS011;8842;51.244;7.102;2023-04-25T01:38:20;9.90;;;9.40;;
17449;SDS011;8842;51.244;7.102;2023-04-25T01:43:24;9.70;;;9.20;;
17449;SDS011;8842;51.244;7.102;2023-04-25T01:48:29;9.60;;;9.10;;
17449;SDS011;8842;51.244;7.102;2023-04-25T01:53:41;9.70;;;9.20;;
17449;SDS011;8842;51.244;7.102;2023-04-25T01:58:46;10.00;;;9.50;;
17449;SDS011;8842;51.244;7.102;2023-04-25T02:03:58;9.80;;;9.30;;
17449;SDS011;8842;51.244;7.102;2023-04-25T02:09:02;9.70;;;9.20;;
17449;SDS011;8842;51.244;7.102;2023-04-25T02:14:16;9.83;;;9.33;;
17449;SDS011;8842;51.244;7.102;2023-04-25T02:19:20;10.00;;;9.50;;
17449;SDS011;8842;51.244;7.102;2023-04-25T02:24:24;9.70;;;9.20;;
17449;SDS011;8842;51.244;7.102;2023-04-25T02:29:36;10.00;;;9.50;;
17449;SDS011;8842;51.244;7.102;2023-04-25T02:34:40;9.80;;;9.30;;
17449;SDS011;8842;51.244;7.102;2023-04-25T02:39:52;9.60;;;9.10;;
17449;SDS011;8842;51.244;7.102;2023-04-25T02:44:56;10.00;;;9.50;;
17449;SDS011;8842;51.244;7.102;2023-04-25T02:50:08;10.00;;;9.50;;
17449;SDS011;8842;51.244;7.102;2023-04-25T02:55:13;10.00;;;9.40;;
17449;SDS011;8842;51.244;7.102;2023-04-25T03:00:25;10.10;;;9.60;;
17449;SDS011;8842;51.244;7.102;2023-04-25T03:05:29;10.60;;;10.00;;
17449;SDS011;8842;51.244;7.102;2023-04-25T03:10:33;9.87;;;9.37;;
17449;SDS011;8842;51.244;7.102;2023-04-25T03:15:45;10.13;;;9.63;;
17449;SDS011;8842;51.244;7.102;2023-04-25T03:20:48;10.90;;;10.30;;
17449;SDS011;8842;51.244;7.102;2023-04-25T03:26:02;10.70;;;10.10;;
17449;SDS011;8842;51.244;7.102;2023-04-25T03:31:07;10.90;;;10.30;;
17449;SDS011;8842;51.244;7.102;2023-04-25T03:36:19;10.50;;;10.00;;
17449;SDS011;8842;51.244;7.102;2023-04-25T03:41:23;10.43;;;9.93;;
17449;SDS011;8842;51.244;7.102;2023-04-25T03:46:34;10.70;;;10.10;;
17449;SDS011;8842;51.244;7.102;2023-04-25T03:51:38;10.70;;;10.10;;
17449;SDS011;8842;51.244;7.102;2023-04-25T03:56:50;11.10;;;10.50;;
17449;SDS011;8842;51.244;7.102;2023-04-25T04:01:54;11.40;;;10.80;;
17449;SDS011;8842;51.244;7.102;2023-04-25T04:07:06;10.40;;;9.90;;
17449;SDS011;8842;51.244;7.102;2023-04-25T04:17:24;11.20;;;10.60;;
17449;SDS011;8842;51.244;7.102;2023-04-25T04:22:28;11.00;;;10.40;;
17449;SDS011;8842;51.244;7.102;2023-04-25T04:27:40;11.40;;;10.70;;
17449;SDS011;8842;51.244;7.102;2023-04-25T04:32:46;11.50;;;10.90;;
17449;SDS011;8842;51.244;7.102;2023-04-25T04:37:58;11.30;;;10.70;;
17449;SDS011;8842;51.244;7.102;2023-04-25T04:43:02;11.60;;;11.00;;
17449;SDS011;8842;51.244;7.102;2023-04-25T04:48:06;11.60;;;11.00;;
17449;SDS011;8842;51.244;7.102;2023-04-25T04:53:11;11.60;;;11.00;;
17449;SDS011;8842;51.244;7.102;2023-04-25T04:58:15;12.10;;;11.40;;
17449;SDS011;8842;51.244;7.102;2023-04-25T05:03:19;11.30;;;10.70;;
17449;SDS011;8842;51.244;7.102;2023-04-25T05:08:30;11.60;;;11.00;;
17449;SDS011;8842;51.244;7.102;2023-04-25T05:13:34;11.73;;;11.13;;
17449;SDS011;8842;51.244;7.102;2023-04-25T05:18:39;11.30;;;10.70;;
17449;SDS011;8842;51.244;7.102;2023-04-25T05:23:43;11.90;;;11.30;;
17449;SDS011;8842;51.244;7.102;2023-04-25T05:28:47;11.53;;;10.93;;
17449;SDS011;8842;51.244;7.102;2023-04-25T05:33:51;11.93;;;11.27;;
17449;SDS011;8842;51.244;7.102;2023-04-25T05:38:55;11.50;;;10.90;;
17449;SDS011;8842;51.244;7.102;2023-04-25T05:43:59;12.03;;;11.43;;
17449;SDS011;8842;51.244;7.102;2023-04-25T05:49:03;11.63;;;11.03;;
17449;SDS011;8842;51.244;7.102;2023-04-25T05:54:07;11.57;;;10.97;;
17449;SDS011;8842;51.244;7.102;2023-04-25T05:59:12;11.80;;;11.20;;
17449;SDS011;8842;51.244;7.102;2023-04-25T06:04:24;11.30;;;10.70;;
17449;SDS011;8842;51.244;7.102;2023-04-25T06:09:28;10.70;;;10.10;;
17449;SDS011;8842;51.244;7.102;2023-04-25T06:14:42;12.73;;;11.80;;
17449;SDS011;8842;51.244;7.102;2023-04-25T06:19:46;11.90;;;11.30;;
17449;SDS011;8842;51.244;7.102;2023-04-25T06:25:00;12.00;;;11.40;;
17449;SDS011;8842;51.244;7.102;2023-04-25T06:30:07;12.87;;;11.87;;
17449;SDS011;8842;51.244;7.102;2023-04-25T06:35:20;13.60;;;12.53;;
17449;SDS011;8842;51.244;7.102;2023-04-25T06:40:24;12.40;;;11.70;;
17449;SDS011;8842;51.244;7.102;2023-04-25T06:45:35;12.70;;;12.00;;
17449;SDS011;8842;51.244;7.102;2023-04-25T06:50:40;12.37;;;11.67;;
17449;SDS011;8842;51.244;7.102;2023-04-25T06:55:44;12.33;;;11.63;;
17449;SDS011;8842;51.244;7.102;2023-04-25T07:00:48;12.60;;;11.90;;
17449;SDS011;8842;51.244;7.102;2023-04-25T07:05:52;12.70;;;11.90;;
17449;SDS011;8842;51.244;7.102;2023-04-25T07:10:56;12.70;;;12.00;;
17449;SDS011;8842;51.244;7.102;2023-04-25T07:16:00;12.60;;;11.90;;
17449;SDS011;8842;51.244;7.102;2023-04-25T07:21:04;13.03;;;12.33;;
17449;SDS011;8842;51.244;7.102;2023-04-25T07:26:08;12.47;;;11.77;;
17449;SDS011;8842;51.244;7.102;2023-04-25T07:31:20;12.50;;;11.80;;
17449;SDS011;8842;51.244;7.102;2023-04-25T07:36:25;13.00;;;12.23;;
17449;SDS011;8842;51.244;7.102;2023-04-25T07:41:37;13.10;;;12.40;;
17449;SDS011;8842;51.244;7.102;2023-04-25T07:46:41;12.70;;;12.00;;
17449;SDS011;8842;51.244;7.102;2023-04-25T07:51:44;12.80;;;12.10;;
17449;SDS011;8842;51.244;7.102;2023-04-25T07:56:48;14.03;;;12.20;;
17449;SDS011;8842;51.244;7.102;2023-04-25T08:01:53;12.60;;;11.90;;
17449;SDS011;8842;51.244;7.102;2023-04-25T08:06:57;12.60;;;11.90;;
17449;SDS011;8842;51.244;7.102;2023-04-25T08:12:01;12.93;;;12.23;;
17449;SDS011;8842;51.244;7.102;2023-04-25T08:17:05;12.90;;;12.20;;
17449;SDS011;8842;51.244;7.102;2023-04-25T08:22:09;12.63;;;11.93;;
17449;SDS011;8842;51.244;7.102;2023-04-25T08:27:13;13.57;;;12.77;;
17449;SDS011;8842;51.244;7.102;2023-04-25T08:32:18;13.53;;;12.83;;
17449;SDS011;8842;51.244;7.102;2023-04-25T08:37:22;13.23;;;12.33;;
17449;SDS011;8842;51.244;7.102;2023-04-25T08:42:33;11.50;;;10.90;;
17449;SDS011;8842;51.244;7.102;2023-04-25T08:47:38;12.40;;;11.70;;
17449;SDS011;8842;51.244;7.102;2023-04-25T08:52:50;12.77;;;12.07;;
17449;SDS011;8842;51.244;7.102;2023-04-25T08:57:57;13.17;;;12.47;;
17449;SDS011;8842;51.244;7.102;2023-04-25T09:03:03;13.20;;;12.50;;
17449;SDS011;8842;51.244;7.102;2023-04-25T09:08:08;13.40;;;12.70;;
17449;SDS011;8842;51.244;7.102;2023-04-25T09:13:13;12.80;;;12.10;;
17449;SDS011;8842;51.244;7.102;2023-04-25T09:18:24;13.33;;;12.63;;
17449;SDS011;8842;51.244;7.102;2023-04-25T09:23:39;12.50;;;11.80;;
17449;SDS011;8842;51.244;7.102;2023-04-25T09:28:45;12.30;;;11.60;;
17449;SDS011;8842;51.244;7.102;2023-04-25T09:33:59;12.50;;;11.80;;
17449;SDS011;8842;51.244;7.102;2023-04-25T09:39:03;13.23;;;12.43;;
17449;SDS011;8842;51.244;7.102;2023-04-25T09:44:21;12.77;;;12.07;;
17449;SDS011;8842;51.244;7.102;2023-04-25T09:49:28;12.50;;;11.80;;
17449;SDS011;8842;51.244;7.102;2023-04-25T09:54:39;12.00;;;11.40;;
17449;SDS011;8842;51.244;7.102;2023-04-25T09:59:44;12.30;;;11.60;;
17449;SDS011;8842;51.244;7.102;2023-04-25T10:04:50;12.93;;;12.23;;
17449;SDS011;8842;51.244;7.102;2023-04-25T10:09:58;13.20;;;12.50;;
17449;SDS011;8842;51.244;7.102;2023-04-25T10:15:06;13.17;;;12.47;;
17449;SDS011;8842;51.244;7.102;2023-04-25T10:20:13;12.20;;;11.60;;
17449;SDS011;8842;51.244;7.102;2023-04-25T10:25:17;12.73;;;12.03;;
17449;SDS011;8842;51.244;7.102;2023-04-25T10:30:21;12.93;;;12.23;;
17449;SDS011;8842;51.244;7.102;2023-04-25T10:35:26;13.10;;;12.40;;
17449;SDS011;8842;51.244;7.102;2023-04-25T10:40:38;13.03;;;12.33;;
17449;SDS011;8842;51.244;7.102;2023-04-25T10:45:51;13.10;;;12.40;;
17449;SDS011;8842;51.244;7.102;2023-04-25T10:51:07;12.70;;;11.90;;
17449;SDS011;8842;51.244;7.102;2023-04-25T10:56:12;12.50;;;11.80;;
17449;SDS011;8842;51.244;7.102;2023-04-25T11:01:24;12.60;;;11.90;;
17449;SDS011;8842;51.244;7.102;2023-04-25T11:06:37;12.53;;;11.83;;
17449;SDS011;8842;51.244;7.102;2023-04-25T11:11:53;12.67;;;11.97;;
17449;SDS011;8842;51.244;7.102;2023-04-25T11:17:08;14.20;;;13.10;;
17449;SDS011;8842;51.244;7.102;2023-04-25T11:22:13;13.43;;;12.73;;
17449;SDS011;8842;51.244;7.102;2023-04-25T11:27:18;13.33;;;12.63;;
17449;SDS011;8842;51.244;7.102;2023-04-25T11:32:22;12.23;;;11.43;;
17449;SDS011;8842;51.244;7.102;2023-04-25T11:37:33;11.90;;;10.90;;
17449;SDS011;8842;51.244;7.102;2023-04-25T11:42:38;13.07;;;12.37;;
17449;SDS011;8842;51.244;7.102;2023-04-25T11:47:50;14.53;;;13.60;;
17449;SDS011;8842;51.244;7.102;2023-04-25T11:52:56;13.97;;;13.17;;
17449;SDS011;8842;51.244;7.102;2023-04-25T11:58:00;14.03;;;13.23;;
17449;SDS011;8842;51.244;7.102;2023-04-25T12:03:12;13.77;;;13.07;;
17449;SDS011;8842;51.244;7.102;2023-04-25T12:08:16;14.50;;;13.70;;
17449;SDS011;8842;51.244;7.102;2023-04-25T12:13:20;14.27;;;13.47;;
17449;SDS011;8842;51.244;7.102;2023-04-25T12:18:26;13.90;;;13.20;;
17449;SDS011;8842;51.244;7.102;2023-04-25T12:23:38;13.40;;;12.70;;
17449;SDS011;8842;51.244;7.102;2023-04-25T12:28:45;13.40;;;12.70;;
17449;SDS011;8842;51.244;7.102;2023-04-25T12:33:50;13.70;;;13.00;;
17449;SDS011;8842;51.244;7.102;2023-04-25T12:38:54;13.50;;;12.80;;
17449;SDS011;8842;51.244;7.102;2023-04-25T12:43:58;14.10;;;13.30;;
17449;SDS011;8842;51.244;7.102;2023-04-25T12:49:02;13.27;;;12.57;;
17449;SDS011;8842;51.244;7.102;2023-04-25T12:54:06;13.30;;;12.60;;
17449;SDS011;8842;51.244;7.102;2023-04-25T12:59:10;12.30;;;11.70;;
17449;SDS011;8842;51.244;7.102;2023-04-25T13:04:14;13.03;;;12.23;;
17449;SDS011;8842;51.244;7.102;2023-04-25T13:09:18;12.13;;;11.53;;
17449;SDS011;8842;51.244;7.102;2023-04-25T13:14:23;12.37;;;11.67;;
17449;SDS011;8842;51.244;7.102;2023-04-25T13:19:34;12.37;;;11.77;;
17449;SDS011;8842;51.244;7.102;2023-04-25T13:24:38;12.17;;;11.57;;
17449;SDS011;8842;51.244;7.102;2023-04-25T13:29:43;12.30;;;11.70;;
17449;SDS011;8842;51.244;7.102;2023-04-25T13:34:55;12.30;;;11.70;;
17449;SDS011;8842;51.244;7.102;2023-04-25T13:39:59;12.50;;;11.80;;
17449;SDS011;8842;51.244;7.102;2023-04-25T13:45:11;12.37;;;11.67;;
17449;SDS011;8842;51.244;7.102;2023-04-25T13:50:15;12.70;;;12.00;;
17449;SDS011;8842;51.244;7.102;2023-04-25T13:55:19;12.43;;;11.83;;
17449;SDS011;8842;51.244;7.102;2023-04-25T14:00:23;12.60;;;11.90;;
17449;SDS011;8842;51.244;7.102;2023-04-25T14:05:27;13.30;;;12.60;;
17449;SDS011;8842;51.244;7.102;2023-04-25T14:10:31;13.20;;;12.50;;
17449;SDS011;8842;51.244;7.102;2023-04-25T14:15:35;12.90;;;12.20;;
17449;SDS011;8842;51.244;7.102;2023-04-25T14:20:47;12.37;;;11.73;;
17449;SDS011;8842;51.244;7.102;2023-04-25T14:25:51;12.20;;;11.60;;
17449;SDS011;8842;51.244;7.102;2023-04-25T14:31:03;12.60;;;11.90;;
17449;SDS011;8842;51.244;7.102;2023-04-25T14:36:08;12.03;;;11.43;;
17449;SDS011;8842;51.244;7.102;2023-04-25T14:41:12;12.27;;;11.67;;
17449;SDS011;8842;51.244;7.102;2023-04-25T14:46:17;12.40;;;11.73;;
17449;SDS011;8842;51.244;7.102;2023-04-25T14:51:21;12.90;;;12.20;;
17449;SDS011;8842;51.244;7.102;2023-04-25T14:56:25;12.87;;;12.17;;
17449;SDS011;8842;51.244;7.102;2023-04-25T15:01:37;13.00;;;12.30;;
17449;SDS011;8842;51.244;7.102;2023-04-25T15:06:41;13.07;;;12.37;;
17449;SDS011;8842;51.244;7.102;2023-04-25T15:11:45;12.80;;;12.10;;
17449;SDS011;8842;51.244;7.102;2023-04-25T15:16:49;11.97;;;11.37;;
17449;SDS011;8842;51.244;7.102;2023-04-25T15:22:03;12.67;;;11.97;;
17449;SDS011;8842;51.244;7.102;2023-04-25T15:27:09;11.07;;;10.47;;
17449;SDS011;8842;51.244;7.102;2023-04-25T15:32:13;11.93;;;11.33;;
17449;SDS011;8842;51.244;7.102;2023-04-25T15:42:28;11.73;;;11.13;;
17449;SDS011;8842;51.244;7.102;2023-04-25T15:47:33;11.17;;;10.50;;
17449;SDS011;8842;51.244;7.102;2023-04-25T15:52:45;11.60;;;11.00;;
17449;SDS011;8842;51.244;7.102;2023-04-25T15:57:51;11.60;;;11.00;;
17449;SDS011;8842;51.244;7.102;2023-04-25T16:03:04;12.87;;;12.17;;
17449;SDS011;8842;51.244;7.102;2023-04-25T16:08:09;12.47;;;11.77;;
17449;SDS011;8842;51.244;7.102;2023-04-25T16:13:13;12.97;;;12.27;;
17449;SDS011;8842;51.244;7.102;2023-04-25T16:18:17;11.70;;;11.10;;
17449;SDS011;8842;51.244;7.102;2023-04-25T16:23:21;12.57;;;11.87;;
17449;SDS011;8842;51.244;7.102;2023-04-25T16:28:25;12.23;;;11.57;;
17449;SDS011;8842;51.244;7.102;2023-04-25T16:33:37;11.30;;;10.70;;
17449;SDS011;8842;51.244;7.102;2023-04-25T16:38:41;12.57;;;11.87;;
17449;SDS011;8842;51.244;7.102;2023-04-25T16:43:53;12.30;;;11.70;;
17449;SDS011;8842;51.244;7.102;2023-04-25T16:48:57;13.40;;;12.70;;
17449;SDS011;8842;51.244;7.102;2023-04-25T16:54:12;13.20;;;12.50;;
17449;SDS011;8842;51.244;7.102;2023-04-25T16:59:16;13.17;;;12.47;;
17449;SDS011;8842;51.244;7.102;2023-04-25T17:04:28;11.50;;;10.90;;
17449;SDS011;8842;51.244;7.102;2023-04-25T17:09:32;11.27;;;10.67;;
17449;SDS011;8842;51.244;7.102;2023-04-25T17:14:43;9.63;;;9.13;;
17449;SDS011;8842;51.244;7.102;2023-04-25T17:19:48;10.43;;;9.93;;
17449;SDS011;8842;51.244;7.102;2023-04-25T17:24:52;11.20;;;10.60;;
17449;SDS011;8842;51.244;7.102;2023-04-25T17:30:05;11.20;;;10.60;;
17449;SDS011;8842;51.244;7.102;2023-04-25T17:35:10;11.23;;;10.63;;
17449;SDS011;8842;51.244;7.102;2023-04-25T17:40:15;11.50;;;10.90;;
17449;SDS011;8842;51.244;7.102;2023-04-25T17:45:19;11.70;;;11.10;;
17449;SDS011;8842;51.244;7.102;2023-04-25T17:50:23;12.20;;;11.50;;
17449;SDS011;8842;51.244;7.102;2023-04-25T17:55:36;11.80;;;11.20;;
17449;SDS011;8842;51.244;7.102;2023-04-25T18:00:42;11.90;;;11.30;;
17449;SDS011;8842;51.244;7.102;2023-04-25T18:05:54;12.90;;;12.20;;
17449;SDS011;8842;51.244;7.102;2023-04-25T18:10:58;12.23;;;11.63;;
17449;SDS011;8842;51.244;7.102;2023-04-25T18:16:09;12.87;;;12.03;;
17449;SDS011;8842;51.244;7.102;2023-04-25T18:21:13;12.63;;;11.93;;
17449;SDS011;8842;51.244;7.102;2023-04-25T18:26:18;12.60;;;11.90;;
17449;SDS011;8842;51.244;7.102;2023-04-25T18:31:22;12.63;;;11.93;;
17449;SDS011;8842;51.244;7.102;2023-04-25T18:36:28;12.23;;;11.63;;
17449;SDS011;8842;51.244;7.102;2023-04-25T18:41:40;12.50;;;11.80;;
17449;SDS011;8842;51.244;7.102;2023-04-25T18:46:44;12.70;;;12.00;;
17449;SDS011;8842;51.244;7.102;2023-04-25T18:51:49;12.47;;;11.80;;
17449;SDS011;8842;51.244;7.102;2023-04-25T18:56:53;12.50;;;11.80;;
17449;SDS011;8842;51.244;7.102;2023-04-25T19:02:05;12.20;;;11.60;;
17449;SDS011;8842;51.244;7.102;2023-04-25T19:07:09;12.60;;;11.90;;
17449;SDS011;8842;51.244;7.102;2023-04-25T19:12:24;12.73;;;12.03;;
17449;SDS011;8842;51.244;7.102;2023-04-25T19:17:28;12.50;;;11.80;;
17449;SDS011;8842;51.244;7.102;2023-04-25T19:22:42;12.57;;;11.87;;
17449;SDS011;8842;51.244;7.102;2023-04-25T19:27:46;12.20;;;11.60;;
17449;SDS011;8842;51.244;7.102;2023-04-25T19:32:58;12.60;;;11.90;;
17449;SDS011;8842;51.244;7.102;2023-04-25T19:38:03;12.73;;;12.03;;
17449;SDS011;8842;51.244;7.102;2023-04-25T19:43:16;12.50;;;11.80;;
17449;SDS011;8842;51.244;7.102;2023-04-25T19:48:21;12.03;;;11.43;;
17449;SDS011;8842;51.244;7.102;2023-04-25T19:53:25;12.53;;;11.83;;
17449;SDS011;8842;51.244;7.102;2023-04-25T19:58:37;12.00;;;11.40;;
17449;SDS011;8842;51.244;7.102;2023-04-25T20:03:41;11.60;;;11.00;;
17449;SDS011;8842;51.244;7.102;2023-04-25T20:08:52;11.77;;;11.17;;
17449;SDS011;8842;51.244;7.102;2023-04-25T20:13:57;11.80;;;11.20;;
17449;SDS011;8842;51.244;7.102;2023-04-25T20:24:12;11.60;;;11.00;;
17449;SDS011;8842;51.244;7.102;2023-04-25T20:29:16;11.50;;;10.90;;
17449;SDS011;8842;51.244;7.102;2023-04-25T20:34:28;11.43;;;10.83;;
17449;SDS011;8842;51.244;7.102;2023-04-25T20:39:33;11.30;;;10.70;;
17449;SDS011;8842;51.244;7.102;2023-04-25T20:44:46;11.53;;;10.93;;
17449;SDS011;8842;51.244;7.102;2023-04-25T20:49:50;11.40;;;10.80;;
17449;SDS011;8842;51.244;7.102;2023-04-25T20:55:02;11.30;;;10.70;;
17449;SDS011;8842;51.244;7.102;2023-04-25T21:00:08;11.60;;;11.00;;
17449;SDS011;8842;51.244;7.102;2023-04-25T21:05:23;11.50;;;10.90;;
17449;SDS011;8842;51.244;7.102;2023-04-25T21:10:27;11.40;;;10.80;;
17449;SDS011;8842;51.244;7.102;2023-04-25T21:15:39;11.80;;;11.20;;
17449;SDS011;8842;51.244;7.102;2023-04-25T21:20:43;11.60;;;11.00;;
17449;SDS011;8842;51.244;7.102;2023-04-25T21:25:55;11.70;;;11.10;;
17449;SDS011;8842;51.244;7.102;2023-04-25T21:30:59;11.80;;;11.20;;
17449;SDS011;8842;51.244;7.102;2023-04-25T21:36:11;11.80;;;11.20;;
17449;SDS011;8842;51.244;7.102;2023-04-25T21:41:15;11.87;;;11.27;;
17449;SDS011;8842;51.244;7.102;2023-04-25T21:46:27;11.90;;;11.30;;
17449;SDS011;8842;51.244;7.102;2023-04-25T21:51:31;11.80;;;11.20;;
17449;SDS011;8842;51.244;7.102;2023-04-25T21:56:44;11.73;;;11.13;;
17449;SDS011;8842;51.244;7.102;2023-04-25T22:01:48;11.67;;;11.03;;
17449;SDS011;8842;51.244;7.102;2023-04-25T22:07:00;11.37;;;10.77;;
17449;SDS011;8842;51.244;7.102;2023-04-25T22:12:04;11.77;;;11.17;;
17449;SDS011;8842;51.244;7.102;2023-04-25T22:17:09;12.03;;;11.43;;
17449;SDS011;8842;51.244;7.102;2023-04-25T22:22:21;11.73;;;11.13;;
17449;SDS011;8842;51.244;7.102;2023-04-25T22:27:25;11.87;;;11.27;;
17449;SDS011;8842;51.244;7.102;2023-04-25T22:32:29;11.60;;;11.00;;
17449;SDS011;8842;51.244;7.102;2023-04-25T22:37:33;12.17;;;11.30;;
17449;SDS011;8842;51.244;7.102;2023-04-25T22:42:38;11.60;;;11.00;;
17449;SDS011;8842;51.244;7.102;2023-04-25T22:47:50;11.13;;;10.53;;
17449;SDS011;8842;51.244;7.102;2023-04-25T22:52:54;11.20;;;10.60;;
17449;SDS011;8842;51.244;7.102;2023-04-25T22:58:06;11.10;;;10.50;;
17449;SDS011;8842;51.244;7.102;2023-04-25T23:03:11;11.00;;;10.40;;
17449;SDS011;8842;51.244;7.102;2023-04-25T23:08:15;11.40;;;10.80;;
17449;SDS011;8842;51.244;7.102;2023-04-25T23:13:26;11.30;;;10.70;;
17449;SDS011;8842;51.244;7.102;2023-04-25T23:18:30;11.30;;;10.70;;
17449;SDS011;8842;51.244;7.102;2023-04-25T23:23:42;11.30;;;10.70;;
17449;SDS011;8842;51.244;7.102;2023-04-25T23:28:47;11.30;;;10.70;;
17449;SDS011;8842;51.244;7.102;2023-04-25T23:33:58;11.00;;;10.40;;
17449;SDS011;8842;51.244;7.102;2023-04-25T23:39:03;11.40;;;10.80;;
17449;SDS011;8842;51.244;7.102;2023-04-25T23:44:14;11.10;;;10.50;;
17449;SDS011;8842;51.244;7.102;2023-04-25T23:49:18;11.30;;;10.70;;
17449;SDS011;8842;51.244;7.102;2023-04-25T23:54:30;11.40;;;10.80;;
17449;SDS011;8842;51.244;7.102;2023-04-25T23:59:34;11.50;;;10.90;;
